In Rescue
 
Open Full Screen Window  High Contrast Mode
Wind Gusting 16 knots
10
November 29, 2022 9:21 AM EST
Weather Information
Wind Direction
  160 °
Wind Speed
  10 kt (12 mph)
Wind Gust
  16 kt (18 mph)
Altimeter
29.84 in
Visibility
10 SM
Temperature
04° C
39° F
Dewpoint
02° C
36° F
Humidity
87%
1hr Rain Fall
00.00 in.
24hr Rain Fall
00.00 in.
Sky Condition
Overcast @ 1,300 ft
MVFR

METAR KERY 291421Z AUTO 16010G16KT 10SM OVC013 04/02 A2984 RMK AO2 T00400015

FAA Disclaimer: The data displayed is for advisory purposes only and is not to be used for flight planning or operations.